sensor_id;sensor_type;location;lat;lon;timestamp;pressure;altitude;pressure_sealevel;temperature;humidity
36190;BME280;22232;50.914;13.858;2023-07-29T00:02:21;97214.09;;;19.07;100.00
36190;BME280;22232;50.914;13.858;2023-07-29T00:04:49;97207.38;;;19.04;100.00
36190;BME280;22232;50.914;13.858;2023-07-29T00:07:17;97215.38;;;18.95;100.00
36190;BME280;22232;50.914;13.858;2023-07-29T00:09:45;97216.69;;;18.98;100.00
36190;BME280;22232;50.914;13.858;2023-07-29T00:12:13;97221.81;;;18.99;100.00
36190;BME280;22232;50.914;13.858;2023-07-29T00:14:40;97213.38;;;19.01;100.00
36190;BME280;22232;50.914;13.858;2023-07-29T00:17:08;97216.16;;;18.96;100.00
36190;BME280;22232;50.914;13.858;2023-07-29T00:19:36;97200.97;;;19.00;100.00
36190;BME280;22232;50.914;13.858;2023-07-29T00:22:04;97205.78;;;19.03;100.00
36190;BME280;22232;50.914;13.858;2023-07-29T00:24:32;97205.59;;;18.99;100.00
36190;BME280;22232;50.914;13.858;2023-07-29T00:26:59;97205.59;;;18.99;100.00
36190;BME280;22232;50.914;13.858;2023-07-29T00:29:27;97205.16;;;18.92;100.00
36190;BME280;22232;50.914;13.858;2023-07-29T00:31:55;97199.16;;;18.95;100.00
36190;BME280;22232;50.914;13.858;2023-07-29T00:34:23;97203.47;;;18.96;100.00
36190;BME280;22232;50.914;13.858;2023-07-29T00:36:50;97206.91;;;19.02;100.00
36190;BME280;22232;50.914;13.858;2023-07-29T00:39:19;97203.47;;;18.96;100.00
36190;BME280;22232;50.914;13.858;2023-07-29T00:41:46;97202.09;;;18.99;100.00
36190;BME280;22232;50.914;13.858;2023-07-29T00:44:14;97210.56;;;18.92;100.00
36190;BME280;22232;50.914;13.858;2023-07-29T00:46:42;97200.28;;;18.94;100.00
36190;BME280;22232;50.914;13.858;2023-07-29T00:49:13;97207.59;;;18.94;100.00
36190;BME280;22232;50.914;13.858;2023-07-29T00:51:41;97202.78;;;18.91;100.00
36190;BME280;22232;50.914;13.858;2023-07-29T00:54:09;97210.75;;;18.96;100.00
36190;BME280;22232;50.914;13.858;2023-07-29T00:56:40;97203.78;;;18.95;100.00
36190;BME280;22232;50.914;13.858;2023-07-29T00:59:08;97206.88;;;18.88;100.00
36190;BME280;22232;50.914;13.858;2023-07-29T01:01:36;97209.84;;;18.87;100.00
36190;BME280;22232;50.914;13.858;2023-07-29T01:04:04;97206.06;;;18.88;100.00
36190;BME280;22232;50.914;13.858;2023-07-29T01:06:50;97209.06;;;18.86;100.00
36190;BME280;22232;50.914;13.858;2023-07-29T01:10:12;97211.28;;;18.84;100.00
36190;BME280;22232;50.914;13.858;2023-07-29T01:12:39;97204.38;;;18.78;100.00
36190;BME280;22232;50.914;13.858;2023-07-29T01:15:16;97215.19;;;18.78;100.00
36190;BME280;22232;50.914;13.858;2023-07-29T01:17:52;97209.44;;;18.66;100.00
36190;BME280;22232;50.914;13.858;2023-07-29T01:20:21;97205.63;;;18.67;100.00
36190;BME280;22232;50.914;13.858;2023-07-29T01:22:51;97213.50;;;18.63;100.00
36190;BME280;22232;50.914;13.858;2023-07-29T01:25:19;97208.41;;;18.62;100.00
36190;BME280;22232;50.914;13.858;2023-07-29T01:27:48;97205.28;;;18.54;100.00
36190;BME280;22232;50.914;13.858;2023-07-29T01:30:21;97206.16;;;18.50;100.00
36190;BME280;22232;50.914;13.858;2023-07-29T01:32:56;97205.47;;;18.44;100.00
36190;BME280;22232;50.914;13.858;2023-07-29T01:35:37;97204.75;;;18.39;100.00
36190;BME280;22232;50.914;13.858;2023-07-29T01:38:16;97197.03;;;18.32;100.00
36190;BME280;22232;50.914;13.858;2023-07-29T01:40:46;97207.75;;;18.37;100.00
36190;BME280;22232;50.914;13.858;2023-07-29T01:43:15;97202.34;;;18.37;100.00
36190;BME280;22232;50.914;13.858;2023-07-29T01:45:44;97204.84;;;18.33;100.00
36190;BME280;22232;50.914;13.858;2023-07-29T01:48:12;97198.91;;;18.31;100.00
36190;BME280;22232;50.914;13.858;2023-07-29T01:50:40;97194.91;;;18.29;100.00
36190;BME280;22232;50.914;13.858;2023-07-29T01:53:08;97201.41;;;18.28;100.00
36190;BME280;22232;50.914;13.858;2023-07-29T01:55:35;97197.59;;;18.29;100.00
36190;BME280;22232;50.914;13.858;2023-07-29T01:58:03;97188.94;;;18.32;100.00
36190;BME280;22232;50.914;13.858;2023-07-29T02:00:35;97191.66;;;18.32;100.00
36190;BME280;22232;50.914;13.858;2023-07-29T02:03:02;97191.13;;;18.30;100.00
36190;BME280;22232;50.914;13.858;2023-07-29T02:05:30;97185.72;;;18.30;100.00
36190;BME280;22232;50.914;13.858;2023-07-29T02:07:58;97188.44;;;18.30;100.00
36190;BME280;22232;50.914;13.858;2023-07-29T02:10:26;97190.91;;;18.26;100.00
36190;BME280;22232;50.914;13.858;2023-07-29T02:12:54;97193.31;;;18.28;100.00
36190;BME280;22232;50.914;13.858;2023-07-29T02:15:22;97193.31;;;18.28;100.00
36190;BME280;22232;50.914;13.858;2023-07-29T02:17:50;97191.22;;;18.25;100.00
36190;BME280;22232;50.914;13.858;2023-07-29T02:20:18;97195.81;;;18.24;100.00
36190;BME280;22232;50.914;13.858;2023-07-29T02:22:46;97193.69;;;18.21;100.00
36190;BME280;22232;50.914;13.858;2023-07-29T02:25:16;97187.19;;;18.22;100.00
36190;BME280;22232;50.914;13.858;2023-07-29T02:27:43;97185.00;;;18.24;100.00
36190;BME280;22232;50.914;13.858;2023-07-29T02:30:11;97188.50;;;18.25;100.00
36190;BME280;22232;50.914;13.858;2023-07-29T02:32:39;97185.88;;;18.20;100.00
36190;BME280;22232;50.914;13.858;2023-07-29T02:35:08;97192.38;;;18.19;100.00
36190;BME280;22232;50.914;13.858;2023-07-29T02:37:35;97187.00;;;18.19;100.00
36190;BME280;22232;50.914;13.858;2023-07-29T02:40:04;97188.88;;;18.18;100.00
36190;BME280;22232;50.914;13.858;2023-07-29T02:42:32;97196.47;;;18.16;100.00
36190;BME280;22232;50.914;13.858;2023-07-29T02:44:59;97204.88;;;18.15;100.00
36190;BME280;22232;50.914;13.858;2023-07-29T02:47:27;97209.16;;;18.16;100.00
36190;BME280;22232;50.914;13.858;2023-07-29T02:49:55;97205.94;;;18.14;100.00
36190;BME280;22232;50.914;13.858;2023-07-29T02:52:23;97200.56;;;18.14;100.00
36190;BME280;22232;50.914;13.858;2023-07-29T02:54:50;97198.75;;;18.09;100.00
36190;BME280;22232;50.914;13.858;2023-07-29T02:57:18;97209.94;;;18.02;100.00
36190;BME280;22232;50.914;13.858;2023-07-29T02:59:46;97210.72;;;18.03;100.00
36190;BME280;22232;50.914;13.858;2023-07-29T03:02:14;97211.09;;;17.96;100.00
36190;BME280;22232;50.914;13.858;2023-07-29T03:04:43;97207.88;;;17.94;100.00
36190;BME280;22232;50.914;13.858;2023-07-29T03:07:11;97209.19;;;17.97;100.00
36190;BME280;22232;50.914;13.858;2023-07-29T03:09:39;97210.50;;;17.99;100.00
36190;BME280;22232;50.914;13.858;2023-07-29T03:12:09;97215.59;;;18.01;100.00
36190;BME280;22232;50.914;13.858;2023-07-29T03:14:37;97212.53;;;18.07;100.00
36190;BME280;22232;50.914;13.858;2023-07-29T03:17:05;97224.03;;;18.13;100.00
36190;BME280;22232;50.914;13.858;2023-07-29T03:19:33;97225.38;;;18.16;100.00
36190;BME280;22232;50.914;13.858;2023-07-29T03:22:00;97226.88;;;18.22;100.00
36190;BME280;22232;50.914;13.858;2023-07-29T03:24:28;97225.50;;;18.24;100.00
36190;BME280;22232;50.914;13.858;2023-07-29T03:26:56;97225.72;;;18.28;100.00
36190;BME280;22232;50.914;13.858;2023-07-29T03:29:24;97229.44;;;18.32;100.00
36190;BME280;22232;50.914;13.858;2023-07-29T03:31:52;97226.63;;;18.37;100.00
36190;BME280;22232;50.914;13.858;2023-07-29T03:34:19;97220.56;;;18.45;100.00
36190;BME280;22232;50.914;13.858;2023-07-29T03:36:47;97219.97;;;18.48;100.00
36190;BME280;22232;50.914;13.858;2023-07-29T03:39:15;97212.69;;;18.49;100.00
36190;BME280;22232;50.914;13.858;2023-07-29T03:41:43;97214.59;;;18.48;100.00
36190;BME280;22232;50.914;13.858;2023-07-29T03:44:11;97214.00;;;18.51;100.00
36190;BME280;22232;50.914;13.858;2023-07-29T03:46:38;97215.59;;;18.52;100.00
36190;BME280;22232;50.914;13.858;2023-07-29T03:49:08;97207.78;;;18.51;100.00
36190;BME280;22232;50.914;13.858;2023-07-29T03:51:36;97201.34;;;18.47;100.00
36190;BME280;22232;50.914;13.858;2023-07-29T03:54:05;97205.69;;;18.48;100.00
36190;BME280;22232;50.914;13.858;2023-07-29T03:56:33;97203.84;;;18.43;100.00
36190;BME280;22232;50.914;13.858;2023-07-29T03:59:07;97208.19;;;18.44;100.00
36190;BME280;22232;50.914;13.858;2023-07-29T04:01:34;97205.38;;;18.49;100.00
36190;BME280;22232;50.914;13.858;2023-07-29T04:04:02;97215.50;;;18.57;100.00
36190;BME280;22232;50.914;13.858;2023-07-29T04:06:31;97217.41;;;18.71;100.00
36190;BME280;22232;50.914;13.858;2023-07-29T04:09:00;97214.78;;;18.85;100.00
36190;BME280;22232;50.914;13.858;2023-07-29T04:11:28;97210.75;;;18.96;100.00
36190;BME280;22232;50.914;13.858;2023-07-29T04:13:56;97209.06;;;19.69;100.00
36190;BME280;22232;50.914;13.858;2023-07-29T04:16:24;97201.22;;;20.71;100.00
36190;BME280;22232;50.914;13.858;2023-07-29T04:18:51;97193.13;;;21.86;100.00
36190;BME280;22232;50.914;13.858;2023-07-29T04:21:20;97187.81;;;22.88;100.00
36190;BME280;22232;50.914;13.858;2023-07-29T04:23:47;97193.22;;;23.74;100.00
36190;BME280;22232;50.914;13.858;2023-07-29T04:26:15;97198.47;;;24.33;100.00
36190;BME280;22232;50.914;13.858;2023-07-29T04:28:43;97190.81;;;24.93;97.59
36190;BME280;22232;50.914;13.858;2023-07-29T04:31:11;97201.44;;;25.31;90.16
36190;BME280;22232;50.914;13.858;2023-07-29T04:33:39;97200.53;;;25.39;89.69
36190;BME280;22232;50.914;13.858;2023-07-29T04:36:06;97196.50;;;24.88;93.29
36190;BME280;22232;50.914;13.858;2023-07-29T04:38:37;97212.53;;;24.02;98.86
36190;BME280;22232;50.914;13.858;2023-07-29T04:41:05;97203.66;;;23.33;100.00
36190;BME280;22232;50.914;13.858;2023-07-29T04:43:34;97197.03;;;22.58;100.00
36190;BME280;22232;50.914;13.858;2023-07-29T04:46:02;97203.66;;;22.13;100.00
36190;BME280;22232;50.914;13.858;2023-07-29T04:48:30;97216.22;;;21.66;100.00
36190;BME280;22232;50.914;13.858;2023-07-29T04:50:58;97213.47;;;21.40;100.00
36190;BME280;22232;50.914;13.858;2023-07-29T04:53:26;97217.53;;;21.20;100.00
36190;BME280;22232;50.914;13.858;2023-07-29T04:55:53;97207.59;;;21.06;100.00
36190;BME280;22232;50.914;13.858;2023-07-29T04:58:21;97215.06;;;21.01;100.00
36190;BME280;22232;50.914;13.858;2023-07-29T05:00:49;97200.72;;;21.00;100.00
36190;BME280;22232;50.914;13.858;2023-07-29T05:03:18;97202.31;;;21.01;100.00
36190;BME280;22232;50.914;13.858;2023-07-29T05:05:45;97204.88;;;21.06;100.00
36190;BME280;22232;50.914;13.858;2023-07-29T05:08:13;97196.16;;;21.18;100.00
36190;BME280;22232;50.914;13.858;2023-07-29T05:10:41;97192.28;;;21.11;100.00
36190;BME280;22232;50.914;13.858;2023-07-29T05:13:09;97197.09;;;21.14;100.00
36190;BME280;22232;50.914;13.858;2023-07-29T05:15:38;97197.25;;;21.17;100.00
36190;BME280;22232;50.914;13.858;2023-07-29T05:18:06;97192.00;;;21.21;100.00
36190;BME280;22232;50.914;13.858;2023-07-29T05:20:33;97198.47;;;21.51;100.00
36190;BME280;22232;50.914;13.858;2023-07-29T05:23:01;97192.31;;;21.85;100.00
36190;BME280;22232;50.914;13.858;2023-07-29T05:25:29;97186.41;;;21.92;100.00
36190;BME280;22232;50.914;13.858;2023-07-29T05:27:57;97190.72;;;21.67;100.00
36190;BME280;22232;50.914;13.858;2023-07-29T05:30:25;97187.81;;;21.72;100.00
36190;BME280;22232;50.914;13.858;2023-07-29T05:32:54;97188.97;;;21.88;100.00
36190;BME280;22232;50.914;13.858;2023-07-29T05:35:22;97187.69;;;21.94;100.00
36190;BME280;22232;50.914;13.858;2023-07-29T05:37:50;97184.97;;;21.94;100.00
36190;BME280;22232;50.914;13.858;2023-07-29T05:40:17;97176.66;;;22.08;100.00
36190;BME280;22232;50.914;13.858;2023-07-29T05:42:45;97172.44;;;22.45;100.00
36190;BME280;22232;50.914;13.858;2023-07-29T05:45:13;97184.09;;;22.63;100.00
36190;BME280;22232;50.914;13.858;2023-07-29T05:47:41;97184.19;;;22.84;100.00
36190;BME280;22232;50.914;13.858;2023-07-29T05:50:09;97185.97;;;23.19;100.00
36190;BME280;22232;50.914;13.858;2023-07-29T05:52:37;97182.97;;;23.41;100.00
36190;BME280;22232;50.914;13.858;2023-07-29T05:55:05;97186.44;;;23.80;100.00
36190;BME280;22232;50.914;13.858;2023-07-29T05:57:33;97184.56;;;24.14;100.00
36190;BME280;22232;50.914;13.858;2023-07-29T06:00:00;97176.31;;;24.22;99.19
36190;BME280;22232;50.914;13.858;2023-07-29T06:02:28;97168.88;;;24.11;97.93
36190;BME280;22232;50.914;13.858;2023-07-29T06:04:56;97162.75;;;25.05;94.86
36190;BME280;22232;50.914;13.858;2023-07-29T06:07:24;97162.88;;;25.98;88.12
36190;BME280;22232;50.914;13.858;2023-07-29T06:09:55;97154.94;;;27.12;80.39
36190;BME280;22232;50.914;13.858;2023-07-29T06:12:23;97163.94;;;27.29;72.82
36190;BME280;22232;50.914;13.858;2023-07-29T06:14:51;97175.19;;;27.59;72.97
36190;BME280;22232;50.914;13.858;2023-07-29T06:17:18;97163.16;;;28.18;65.64
36190;BME280;22232;50.914;13.858;2023-07-29T06:19:46;97156.72;;;28.10;67.34
36190;BME280;22232;50.914;13.858;2023-07-29T06:22:14;97162.69;;;28.35;65.50
36190;BME280;22232;50.914;13.858;2023-07-29T06:24:42;97162.00;;;28.00;66.87
36190;BME280;22232;50.914;13.858;2023-07-29T06:27:10;97168.44;;;27.37;69.04
36190;BME280;22232;50.914;13.858;2023-07-29T06:29:37;97173.22;;;26.76;72.26
36190;BME280;22232;50.914;13.858;2023-07-29T06:32:05;97172.06;;;26.34;76.97
36190;BME280;22232;50.914;13.858;2023-07-29T06:34:33;97170.84;;;26.03;79.40
36190;BME280;22232;50.914;13.858;2023-07-29T06:37:01;97169.56;;;26.28;80.43
36190;BME280;22232;50.914;13.858;2023-07-29T06:39:29;97166.34;;;27.14;79.17
36190;BME280;22232;50.914;13.858;2023-07-29T06:41:56;97174.34;;;27.55;70.88
36190;BME280;22232;50.914;13.858;2023-07-29T06:44:24;97172.00;;;27.21;70.32
36190;BME280;22232;50.914;13.858;2023-07-29T06:46:52;97172.28;;;27.16;69.27
36190;BME280;22232;50.914;13.858;2023-07-29T06:49:20;97172.78;;;27.06;70.03
36190;BME280;22232;50.914;13.858;2023-07-29T06:51:47;97184.44;;;26.43;71.46
36190;BME280;22232;50.914;13.858;2023-07-29T06:54:16;97176.03;;;26.08;77.44
36190;BME280;22232;50.914;13.858;2023-07-29T06:56:44;97184.44;;;25.75;78.13
36190;BME280;22232;50.914;13.858;2023-07-29T06:59:12;97183.09;;;25.44;82.44
36190;BME280;22232;50.914;13.858;2023-07-29T07:01:40;97185.28;;;25.26;84.95
36190;BME280;22232;50.914;13.858;2023-07-29T07:04:07;97184.81;;;25.12;83.58
36190;BME280;22232;50.914;13.858;2023-07-29T07:06:35;97186.38;;;24.88;86.89
36190;BME280;22232;50.914;13.858;2023-07-29T07:09:03;97182.03;;;24.75;86.75
36190;BME280;22232;50.914;13.858;2023-07-29T07:11:31;97189.91;;;24.43;88.02
36190;BME280;22232;50.914;13.858;2023-07-29T07:13:59;97183.19;;;24.41;90.38
36190;BME280;22232;50.914;13.858;2023-07-29T07:16:26;97186.00;;;24.32;90.76
36190;BME280;22232;50.914;13.858;2023-07-29T07:18:57;97186.78;;;24.54;91.68
36190;BME280;22232;50.914;13.858;2023-07-29T07:21:24;97174.47;;;24.47;92.19
36190;BME280;22232;50.914;13.858;2023-07-29T07:23:52;97173.56;;;24.56;92.44
36190;BME280;22232;50.914;13.858;2023-07-29T07:26:20;97163.53;;;25.05;91.46
36190;BME280;22232;50.914;13.858;2023-07-29T07:28:48;97155.94;;;25.35;86.32
36190;BME280;22232;50.914;13.858;2023-07-29T07:31:15;97154.63;;;26.10;83.65
36190;BME280;22232;50.914;13.858;2023-07-29T07:33:46;97150.19;;;26.93;74.78
36190;BME280;22232;50.914;13.858;2023-07-29T07:36:14;97142.94;;;26.85;71.20
36190;BME280;22232;50.914;13.858;2023-07-29T07:38:44;97140.38;;;27.08;70.99
36190;BME280;22232;50.914;13.858;2023-07-29T07:41:12;97144.63;;;27.21;68.88
36190;BME280;22232;50.914;13.858;2023-07-29T07:43:40;97147.06;;;27.27;68.03
36190;BME280;22232;50.914;13.858;2023-07-29T07:46:07;97141.53;;;27.07;66.18
36190;BME280;22232;50.914;13.858;2023-07-29T07:48:35;97143.81;;;26.58;67.96
36190;BME280;22232;50.914;13.858;2023-07-29T07:51:13;97146.59;;;26.29;66.38
36190;BME280;22232;50.914;13.858;2023-07-29T07:53:41;97136.75;;;25.72;70.75
36190;BME280;22232;50.914;13.858;2023-07-29T07:56:09;97138.16;;;25.54;73.80
36190;BME280;22232;50.914;13.858;2023-07-29T07:58:38;97123.28;;;25.51;74.16
36190;BME280;22232;50.914;13.858;2023-07-29T08:01:06;97128.63;;;25.48;75.97
36190;BME280;22232;50.914;13.858;2023-07-29T08:03:35;97130.25;;;25.24;72.50
36190;BME280;22232;50.914;13.858;2023-07-29T08:06:04;97126.72;;;24.87;71.64
36190;BME280;22232;50.914;13.858;2023-07-29T08:08:34;97137.16;;;24.97;71.77
36190;BME280;22232;50.914;13.858;2023-07-29T08:11:02;97129.34;;;25.08;75.30
36190;BME280;22232;50.914;13.858;2023-07-29T08:13:29;97126.25;;;25.09;71.47
36190;BME280;22232;50.914;13.858;2023-07-29T08:15:57;97108.75;;;25.23;75.14
36190;BME280;22232;50.914;13.858;2023-07-29T08:18:25;97113.84;;;25.36;71.53
36190;BME280;22232;50.914;13.858;2023-07-29T08:20:58;97109.88;;;25.34;70.27
36190;BME280;22232;50.914;13.858;2023-07-29T08:23:26;97106.91;;;25.39;71.43
36190;BME280;22232;50.914;13.858;2023-07-29T08:25:55;97104.94;;;25.52;69.67
36190;BME280;22232;50.914;13.858;2023-07-29T08:28:33;97113.78;;;25.61;69.50
36190;BME280;22232;50.914;13.858;2023-07-29T08:31:02;97106.81;;;25.76;67.46
36190;BME280;22232;50.914;13.858;2023-07-29T08:33:30;97104.78;;;26.01;68.31
36190;BME280;22232;50.914;13.858;2023-07-29T08:35:58;97103.13;;;25.96;64.76
36190;BME280;22232;50.914;13.858;2023-07-29T08:38:26;97106.88;;;25.92;64.65
36190;BME280;22232;50.914;13.858;2023-07-29T08:41:00;97102.22;;;26.20;67.60
36190;BME280;22232;50.914;13.858;2023-07-29T08:43:32;97100.31;;;26.68;62.87
36190;BME280;22232;50.914;13.858;2023-07-29T08:46:00;97096.94;;;27.22;60.23
36190;BME280;22232;50.914;13.858;2023-07-29T08:48:33;97093.28;;;27.34;60.61
36190;BME280;22232;50.914;13.858;2023-07-29T08:51:04;97105.06;;;27.54;59.66
36190;BME280;22232;50.914;13.858;2023-07-29T08:53:32;97105.78;;;27.71;62.86
36190;BME280;22232;50.914;13.858;2023-07-29T08:56:01;97110.72;;;27.81;59.95
36190;BME280;22232;50.914;13.858;2023-07-29T08:58:29;97112.38;;;27.31;60.62
36190;BME280;22232;50.914;13.858;2023-07-29T09:00:57;97119.28;;;27.09;64.78
36190;BME280;22232;50.914;13.858;2023-07-29T09:03:25;97114.63;;;26.77;65.08
36190;BME280;22232;50.914;13.858;2023-07-29T09:05:54;97118.41;;;26.57;68.69
36190;BME280;22232;50.914;13.858;2023-07-29T09:08:26;97118.72;;;26.40;71.82
36190;BME280;22232;50.914;13.858;2023-07-29T09:10:55;97120.38;;;26.28;74.08
36190;BME280;22232;50.914;13.858;2023-07-29T09:13:23;97111.78;;;26.14;71.72
36190;BME280;22232;50.914;13.858;2023-07-29T09:15:57;97113.06;;;26.33;72.80
36190;BME280;22232;50.914;13.858;2023-07-29T09:18:26;97118.28;;;26.38;67.22
36190;BME280;22232;50.914;13.858;2023-07-29T09:20:54;97115.31;;;26.74;65.75
36190;BME280;22232;50.914;13.858;2023-07-29T09:23:22;97108.53;;;27.51;66.75
36190;BME280;22232;50.914;13.858;2023-07-29T09:25:50;97114.03;;;27.90;61.89
36190;BME280;22232;50.914;13.858;2023-07-29T09:28:17;97115.38;;;28.00;60.54
36190;BME280;22232;50.914;13.858;2023-07-29T09:30:46;97110.88;;;27.88;64.31
36190;BME280;22232;50.914;13.858;2023-07-29T09:33:14;97110.88;;;27.88;67.23
36190;BME280;22232;50.914;13.858;2023-07-29T09:35:42;97111.28;;;27.71;63.66
36190;BME280;22232;50.914;13.858;2023-07-29T09:38:14;97102.97;;;26.65;69.02
36190;BME280;22232;50.914;13.858;2023-07-29T09:40:43;97104.69;;;27.05;69.96
36190;BME280;22232;50.914;13.858;2023-07-29T09:43:12;97106.13;;;27.30;72.04
36190;BME280;22232;50.914;13.858;2023-07-29T09:45:41;97100.50;;;27.42;72.14
36190;BME280;22232;50.914;13.858;2023-07-29T09:48:09;97101.44;;;27.50;69.29
36190;BME280;22232;50.914;13.858;2023-07-29T09:50:38;97104.56;;;27.68;71.83
36190;BME280;22232;50.914;13.858;2023-07-29T09:53:07;97102.09;;;27.63;67.57
36190;BME280;22232;50.914;13.858;2023-07-29T09:55:34;97106.84;;;27.47;66.85
36190;BME280;22232;50.914;13.858;2023-07-29T09:58:02;97108.59;;;27.55;66.53
36190;BME280;22232;50.914;13.858;2023-07-29T10:00:35;97100.13;;;27.44;70.61
36190;BME280;22232;50.914;13.858;2023-07-29T10:03:03;97095.69;;;27.04;66.54
36190;BME280;22232;50.914;13.858;2023-07-29T10:05:32;97099.00;;;26.62;67.53
36190;BME280;22232;50.914;13.858;2023-07-29T10:08:02;97095.03;;;26.75;66.86
36190;BME280;22232;50.914;13.858;2023-07-29T10:10:30;97101.88;;;26.38;67.53
36190;BME280;22232;50.914;13.858;2023-07-29T10:12:58;97093.94;;;26.33;71.94
36190;BME280;22232;50.914;13.858;2023-07-29T10:15:26;97094.16;;;26.12;72.82
36190;BME280;22232;50.914;13.858;2023-07-29T10:17:55;97100.22;;;26.05;74.64
36190;BME280;22232;50.914;13.858;2023-07-29T10:20:23;97088.09;;;26.18;76.55
36190;BME280;22232;50.914;13.858;2023-07-29T10:22:51;97082.56;;;26.46;76.33
36190;BME280;22232;50.914;13.858;2023-07-29T10:25:24;97076.06;;;26.83;75.50
36190;BME280;22232;50.914;13.858;2023-07-29T10:27:56;97093.69;;;27.01;72.66
36190;BME280;22232;50.914;13.858;2023-07-29T10:30:24;97087.22;;;27.09;71.31
36190;BME280;22232;50.914;13.858;2023-07-29T10:32:53;97081.94;;;27.00;69.02
36190;BME280;22232;50.914;13.858;2023-07-29T10:35:21;97088.41;;;26.76;71.20
36190;BME280;22232;50.914;13.858;2023-07-29T10:37:49;97089.91;;;26.74;74.86
36190;BME280;22232;50.914;13.858;2023-07-29T10:40:19;97109.72;;;26.39;76.72
36190;BME280;22232;50.914;13.858;2023-07-29T10:45:41;97107.94;;;23.10;100.00
36190;BME280;22232;50.914;13.858;2023-07-29T10:48:11;97096.47;;;21.93;100.00
36190;BME280;22232;50.914;13.858;2023-07-29T10:50:40;97095.00;;;22.31;100.00
36190;BME280;22232;50.914;13.858;2023-07-29T10:53:07;97094.91;;;22.57;100.00
36190;BME280;22232;50.914;13.858;2023-07-29T10:55:35;97090.59;;;22.85;100.00
36190;BME280;22232;50.914;13.858;2023-07-29T10:58:13;97082.72;;;23.01;100.00
36190;BME280;22232;50.914;13.858;2023-07-29T11:00:42;97098.75;;;22.94;100.00
36190;BME280;22232;50.914;13.858;2023-07-29T11:03:12;97103.53;;;22.59;100.00
36190;BME280;22232;50.914;13.858;2023-07-29T11:05:49;97110.16;;;22.32;100.00
36190;BME280;22232;50.914;13.858;2023-07-29T11:08:29;97114.03;;;21.96;100.00
36190;BME280;22232;50.914;13.858;2023-07-29T11:11:08;97109.75;;;21.43;100.00
36190;BME280;22232;50.914;13.858;2023-07-29T11:13:39;97103.75;;;21.15;100.00
36190;BME280;22232;50.914;13.858;2023-07-29T11:16:10;97107.53;;;20.88;100.00
36190;BME280;22232;50.914;13.858;2023-07-29T11:18:38;97095.63;;;21.06;100.00
36190;BME280;22232;50.914;13.858;2023-07-29T11:21:07;97097.72;;;21.18;100.00
36190;BME280;22232;50.914;13.858;2023-07-29T11:23:36;97092.94;;;21.23;100.00
36190;BME280;22232;50.914;13.858;2023-07-29T11:26:04;97085.16;;;21.39;100.00
36190;BME280;22232;50.914;13.858;2023-07-29T11:28:38;97080.72;;;21.52;100.00
36190;BME280;22232;50.914;13.858;2023-07-29T11:31:06;97072.38;;;21.74;100.00
36190;BME280;22232;50.914;13.858;2023-07-29T11:33:34;97071.53;;;22.09;100.00
36190;BME280;22232;50.914;13.858;2023-07-29T11:36:02;97074.38;;;22.12;100.00
36190;BME280;22232;50.914;13.858;2023-07-29T11:38:30;97069.38;;;22.49;100.00
36190;BME280;22232;50.914;13.858;2023-07-29T11:41:04;97070.06;;;22.67;100.00
36190;BME280;22232;50.914;13.858;2023-07-29T11:43:36;97073.97;;;22.87;100.00
36190;BME280;22232;50.914;13.858;2023-07-29T11:46:04;97070.97;;;23.09;100.00
36190;BME280;22232;50.914;13.858;2023-07-29T11:48:32;97065.97;;;23.41;100.00
36190;BME280;22232;50.914;13.858;2023-07-29T11:51:02;97079.09;;;23.81;100.00
36190;BME280;22232;50.914;13.858;2023-07-29T11:53:31;97073.34;;;23.95;100.00
36190;BME280;22232;50.914;13.858;2023-07-29T11:55:59;97066.22;;;24.02;100.00
36190;BME280;22232;50.914;13.858;2023-07-29T11:58:27;97053.38;;;23.91;100.00
36190;BME280;22232;50.914;13.858;2023-07-29T12:00:55;97070.34;;;23.75;100.00
36190;BME280;22232;50.914;13.858;2023-07-29T12:03:23;97073.66;;;23.81;100.00
36190;BME280;22232;50.914;13.858;2023-07-29T12:05:52;97065.97;;;23.83;100.00
36190;BME280;22232;50.914;13.858;2023-07-29T12:08:20;97061.03;;;23.76;100.00
36190;BME280;22232;50.914;13.858;2023-07-29T12:10:48;97067.53;;;23.84;100.00
36190;BME280;22232;50.914;13.858;2023-07-29T12:13:16;97062.03;;;23.72;100.00
36190;BME280;22232;50.914;13.858;2023-07-29T12:15:44;97056.06;;;23.78;100.00
36190;BME280;22232;50.914;13.858;2023-07-29T12:18:12;97049.63;;;23.83;100.00
36190;BME280;22232;50.914;13.858;2023-07-29T12:20:40;97049.53;;;24.04;100.00
36190;BME280;22232;50.914;13.858;2023-07-29T12:23:07;97036.75;;;24.17;100.00
36190;BME280;22232;50.914;13.858;2023-07-29T12:25:35;97035.00;;;24.45;100.00
36190;BME280;22232;50.914;13.858;2023-07-29T12:28:05;97031.13;;;24.46;100.00
36190;BME280;22232;50.914;13.858;2023-07-29T12:30:32;97023.53;;;24.52;100.00
36190;BME280;22232;50.914;13.858;2023-07-29T12:33:00;97029.44;;;24.54;100.00
36190;BME280;22232;50.914;13.858;2023-07-29T12:35:38;97031.34;;;24.41;100.00
36190;BME280;22232;50.914;13.858;2023-07-29T12:38:06;97028.41;;;24.59;100.00
36190;BME280;22232;50.914;13.858;2023-07-29T12:40:38;97026.72;;;24.42;100.00
36190;BME280;22232;50.914;13.858;2023-07-29T12:43:06;97029.72;;;24.40;97.80
36190;BME280;22232;50.914;13.858;2023-07-29T12:45:37;97028.97;;;24.52;99.00
36190;BME280;22232;50.914;13.858;2023-07-29T12:48:08;97019.88;;;24.72;100.00
36190;BME280;22232;50.914;13.858;2023-07-29T12:50:39;97018.75;;;24.61;99.71
36190;BME280;22232;50.914;13.858;2023-07-29T12:53:08;97012.59;;;24.89;100.00
36190;BME280;22232;50.914;13.858;2023-07-29T12:55:38;97010.41;;;25.19;93.55